createdAt,value
2016-09-15T00:00:40.093Z,17.2
2016-09-15T00:01:40.085Z,17.17
2016-09-15T00:02:40.087Z,17.13
2016-09-15T00:03:40.083Z,17.09
2016-09-15T00:04:40.091Z,17.1
2016-09-15T00:05:40.089Z,17.07
2016-09-15T00:06:40.078Z,17
2016-09-15T00:07:40.082Z,16.94
2016-09-15T00:08:40.075Z,16.91
2016-09-15T00:09:40.064Z,16.87
2016-09-15T00:10:40.065Z,16.85
2016-09-15T00:11:40.069Z,16.84
2016-09-15T00:12:40.062Z,16.82
2016-09-15T00:13:40.077Z,16.81
2016-09-15T00:14:40.065Z,16.88
2016-09-15T00:15:40.054Z,16.84
2016-09-15T00:16:40.053Z,16.85
2016-09-15T00:17:40.048Z,16.84
2016-09-15T00:18:40.050Z,16.81
2016-09-15T00:19:40.046Z,16.74
2016-09-15T00:20:40.046Z,16.81
2016-09-15T00:21:40.041Z,16.69
2016-09-15T00:22:40.034Z,16.69
2016-09-15T00:23:40.030Z,16.74
2016-09-15T00:24:40.033Z,16.7
2016-09-15T00:25:40.033Z,16.77
2016-09-15T00:26:40.034Z,16.76
2016-09-15T00:27:40.015Z,16.73
2016-09-15T00:28:40.017Z,16.67
2016-09-15T00:29:40.012Z,16.7
2016-09-15T00:30:40.020Z,16.73
2016-09-15T00:31:40.014Z,16.69
2016-09-15T00:32:40.002Z,16.59
2016-09-15T00:33:40.003Z,16.59
2016-09-15T00:34:40.010Z,16.55
2016-09-15T00:35:39.995Z,16.51
2016-09-15T00:36:39.992Z,16.49
2016-09-15T00:37:39.992Z,16.57
2016-09-15T00:38:39.985Z,16.52
2016-09-15T00:39:39.990Z,16.65
2016-09-15T00:40:39.978Z,16.58
2016-09-15T00:41:39.983Z,16.63
2016-09-15T00:42:39.975Z,16.69
2016-09-15T00:43:39.971Z,16.7
2016-09-15T00:44:39.978Z,16.72
2016-09-15T00:45:39.980Z,16.67
2016-09-15T00:46:39.970Z,16.74
2016-09-15T00:47:39.969Z,16.65
2016-09-15T00:48:39.956Z,16.69
2016-09-15T00:49:39.948Z,16.67
2016-09-15T00:50:39.958Z,16.72
2016-09-15T00:51:39.967Z,16.67
2016-09-15T00:52:39.942Z,16.65
2016-09-15T00:53:39.943Z,16.7
2016-09-15T00:54:39.947Z,16.72
2016-09-15T00:55:39.929Z,16.51
2016-09-15T00:56:39.933Z,16.48
2016-09-15T00:57:39.928Z,16.51
2016-09-15T00:58:39.928Z,16.49
2016-09-15T00:59:39.925Z,16.48
2016-09-15T01:00:39.923Z,16.45
2016-09-15T01:01:39.914Z,16.54
2016-09-15T01:02:39.915Z,16.45
2016-09-15T01:03:39.922Z,16.45
2016-09-15T01:04:39.926Z,16.33
2016-09-15T01:05:39.913Z,16.34
2016-09-15T01:06:39.900Z,16.4
2016-09-15T01:07:39.910Z,16.29
2016-09-15T01:08:39.904Z,16.39
2016-09-15T01:09:39.893Z,16.32
2016-09-15T01:10:39.891Z,16.3
2016-09-15T01:11:39.887Z,16.34
2016-09-15T01:12:39.881Z,16.25
2016-09-15T01:13:39.882Z,16.25
2016-09-15T01:14:39.878Z,16.14
2016-09-15T01:15:39.871Z,16.18
2016-09-15T01:16:39.867Z,16.08
2016-09-15T01:17:39.871Z,16.08
2016-09-15T01:18:39.864Z,16.07
2016-09-15T01:19:39.859Z,16.08
2016-09-15T01:20:39.865Z,16.08
2016-09-15T01:21:39.853Z,16.11
2016-09-15T01:22:39.846Z,16.06
2016-09-15T01:23:39.850Z,16.11
2016-09-15T01:24:39.845Z,15.93
2016-09-15T01:25:39.855Z,15.91
2016-09-15T01:26:39.831Z,15.98
2016-09-15T01:27:39.836Z,15.93
2016-09-15T01:28:39.824Z,15.95
2016-09-15T01:29:39.838Z,15.89
2016-09-15T01:30:39.824Z,15.93
2016-09-15T01:31:39.819Z,15.98
2016-09-15T01:32:39.815Z,15.98
2016-09-15T01:33:39.813Z,16
2016-09-15T01:34:39.804Z,15.92
2016-09-15T01:35:39.805Z,16
2016-09-15T01:36:39.806Z,15.88
2016-09-15T01:37:39.798Z,15.81
2016-09-15T01:38:39.790Z,15.89
2016-09-15T01:39:39.806Z,15.89
2016-09-15T01:40:39.789Z,15.88
2016-09-15T01:41:39.787Z,15.91
2016-09-15T01:42:39.789Z,15.75
2016-09-15T01:43:39.779Z,15.78
2016-09-15T01:44:39.769Z,15.78
2016-09-15T01:45:39.775Z,15.7
2016-09-15T01:46:39.773Z,15.77
2016-09-15T01:47:39.767Z,15.7
2016-09-15T01:48:39.763Z,15.74
2016-09-15T01:49:39.764Z,15.74
2016-09-15T01:50:39.802Z,15.83
2016-09-15T01:51:40.079Z,15.89
2016-09-15T01:52:39.757Z,15.89
2016-09-15T01:53:39.743Z,15.86
2016-09-15T01:54:39.739Z,15.8
2016-09-15T01:55:39.744Z,15.88
2016-09-15T01:56:39.728Z,15.81
2016-09-15T01:57:39.726Z,15.96
2016-09-15T01:58:39.730Z,15.93
2016-09-15T01:59:39.728Z,15.96
2016-09-15T02:00:39.719Z,15.95
2016-09-15T02:01:39.724Z,15.93
2016-09-15T02:02:39.723Z,16.08
2016-09-15T02:03:39.707Z,16.13
2016-09-15T02:04:39.702Z,16.07
2016-09-15T02:05:39.709Z,16.14
2016-09-15T02:06:39.696Z,16.14
2016-09-15T02:07:39.699Z,16.22
2016-09-15T02:08:39.691Z,16.14
2016-09-15T02:09:39.693Z,16.08
2016-09-15T02:10:39.687Z,16.07
2016-09-15T02:11:39.691Z,16.06
2016-09-15T02:12:39.673Z,15.95
2016-09-15T02:13:39.992Z,15.99
2016-09-15T02:14:39.667Z,15.99
2016-09-15T02:15:39.678Z,16.06
2016-09-15T02:16:39.663Z,16.04
2016-09-15T02:17:39.665Z,15.96
2016-09-15T02:18:39.663Z,15.98
2016-09-15T02:19:39.654Z,15.95
2016-09-15T02:20:39.654Z,15.93
2016-09-15T02:21:39.642Z,15.95
2016-09-15T02:22:39.641Z,15.96
2016-09-15T02:23:39.636Z,15.96
2016-09-15T02:24:39.638Z,16.07
2016-09-15T02:25:39.643Z,16.07
2016-09-15T02:26:39.636Z,16.02
2016-09-15T02:27:39.628Z,16.14
2016-09-15T02:28:39.619Z,16.22
2016-09-15T02:29:39.627Z,16.25
2016-09-15T02:30:39.640Z,16.32
2016-09-15T02:31:39.607Z,16.26
2016-09-15T02:32:39.609Z,16.32
2016-09-15T02:33:39.602Z,16.3
2016-09-15T02:34:39.609Z,16.22
2016-09-15T02:35:39.596Z,16.17
2016-09-15T02:36:39.589Z,16.25
2016-09-15T02:37:39.589Z,16.25
2016-09-15T02:38:39.584Z,16.32
2016-09-15T02:39:39.575Z,16.32
2016-09-15T02:40:39.572Z,16.3
2016-09-15T02:41:39.573Z,16.17
2016-09-15T02:42:39.891Z,16.26
2016-09-15T02:43:39.561Z,16.27
2016-09-15T02:44:39.561Z,16.34
2016-09-15T02:45:39.559Z,16.16
2016-09-15T02:46:39.558Z,16.21
2016-09-15T02:47:39.548Z,16.18
2016-09-15T02:48:39.550Z,16.11
2016-09-15T02:49:39.545Z,16.1
2016-09-15T02:50:39.564Z,16.11
2016-09-15T02:51:39.539Z,16.07
2016-09-15T02:52:39.534Z,16.07
2016-09-15T02:53:39.531Z,16.04
2016-09-15T02:54:39.562Z,16.06
2016-09-15T02:55:39.531Z,15.92
2016-09-15T02:56:39.520Z,15.99
2016-09-15T02:57:39.524Z,15.95
2016-09-15T02:58:39.508Z,15.99
2016-09-15T02:59:39.514Z,16
2016-09-15T03:00:39.508Z,15.78
2016-09-15T03:01:39.516Z,15.84
2016-09-15T03:02:39.498Z,15.77
2016-09-15T03:03:39.507Z,15.86
2016-09-15T03:04:39.498Z,15.84
2016-09-15T03:05:39.486Z,16.06
2016-09-15T03:06:39.486Z,16.04
2016-09-15T03:07:39.490Z,16.11
2016-09-15T03:08:39.475Z,16.07
2016-09-15T03:09:39.475Z,16.06
2016-09-15T03:10:39.487Z,16.07
2016-09-15T03:11:39.468Z,15.98
2016-09-15T03:12:39.467Z,15.92
2016-09-15T03:13:39.462Z,15.91
2016-09-15T03:14:39.458Z,15.78
2016-09-15T03:15:39.454Z,15.74
2016-09-15T03:16:39.455Z,15.75
2016-09-15T03:17:39.471Z,15.75
2016-09-15T03:18:39.472Z,15.75
2016-09-15T03:19:39.478Z,15.73
2016-09-15T03:20:39.435Z,15.68
2016-09-15T03:21:39.738Z,15.71
2016-09-15T03:22:39.430Z,15.63
2016-09-15T03:23:39.413Z,15.67
2016-09-15T03:24:39.415Z,15.55
2016-09-15T03:25:39.427Z,15.44
2016-09-15T03:26:39.425Z,15.47
2016-09-15T03:27:39.432Z,15.4
2016-09-15T03:28:39.729Z,15.3
2016-09-15T03:29:39.459Z,15.25
2016-09-15T03:30:39.456Z,15.19
2016-09-15T03:31:39.458Z,15.12
2016-09-15T03:32:39.393Z,15.07
2016-09-15T03:33:39.707Z,15.04
2016-09-15T03:34:39.393Z,15.01
2016-09-15T03:35:39.386Z,14.98
2016-09-15T03:36:39.397Z,14.82
2016-09-15T03:37:39.404Z,14.85
2016-09-15T03:38:39.411Z,14.83
2016-09-15T03:39:39.415Z,14.79
2016-09-15T03:40:39.668Z,14.71
2016-09-15T03:41:39.431Z,14.74
2016-09-15T03:42:39.440Z,14.66
2016-09-15T03:43:39.452Z,14.67
2016-09-15T03:44:39.406Z,14.6
2016-09-15T03:45:39.359Z,14.59
2016-09-15T03:46:39.371Z,14.53
2016-09-15T03:47:39.374Z,14.48
2016-09-15T03:48:39.390Z,14.52
2016-09-15T03:49:39.386Z,14.49
2016-09-15T03:50:39.397Z,14.45
2016-09-15T03:51:39.398Z,14.46
2016-09-15T03:52:39.360Z,14.49
2016-09-15T03:53:39.416Z,14.48
2016-09-15T03:54:39.361Z,14.52
2016-09-15T03:55:39.370Z,14.46
2016-09-15T03:56:39.427Z,14.44
2016-09-15T03:57:39.343Z,14.28
2016-09-15T03:58:39.351Z,14.28
2016-09-15T03:59:39.359Z,14.38
2016-09-15T04:00:39.365Z,14.33
2016-09-15T04:01:39.309Z,14.3
2016-09-15T04:02:39.331Z,14.34
2016-09-15T04:03:39.330Z,14.31
2016-09-15T04:04:39.333Z,14.26
2016-09-15T04:05:39.342Z,14.16
2016-09-15T04:06:39.670Z,14.3
2016-09-15T04:07:39.357Z,14.12
2016-09-15T04:08:39.370Z,14.21
2016-09-15T04:09:39.376Z,14.09
2016-09-15T04:10:39.338Z,14.2
2016-09-15T04:11:39.338Z,14.08
2016-09-15T04:12:39.295Z,14.06
2016-09-15T04:13:39.317Z,14.06
2016-09-15T04:14:39.298Z,13.99
2016-09-15T04:15:39.334Z,14.08
2016-09-15T04:16:39.337Z,14.08
2016-09-15T04:17:39.663Z,14.08
2016-09-15T04:18:39.340Z,13.93
2016-09-15T04:19:39.656Z,14.05
2016-09-15T04:20:39.347Z,13.93
2016-09-15T04:21:39.268Z,13.91
2016-09-15T04:22:39.269Z,13.99
2016-09-15T04:23:39.262Z,13.93
2016-09-15T04:24:39.276Z,14.06
2016-09-15T04:25:39.284Z,14.08
2016-09-15T04:26:39.299Z,14.05
2016-09-15T04:27:39.299Z,14.09
2016-09-15T04:28:39.309Z,13.99
2016-09-15T04:29:39.315Z,13.97
2016-09-15T04:30:39.323Z,13.99
2016-09-15T04:31:39.335Z,13.97
2016-09-15T04:32:39.265Z,13.91
2016-09-15T04:33:39.275Z,13.83
2016-09-15T04:34:39.285Z,13.88
2016-09-15T04:35:39.255Z,13.86
2016-09-15T04:36:39.625Z,13.78
2016-09-15T04:37:39.272Z,13.79
2016-09-15T04:38:39.270Z,13.68
2016-09-15T04:39:39.284Z,13.68
2016-09-15T04:40:39.249Z,13.75
2016-09-15T04:41:39.598Z,13.6
2016-09-15T04:42:39.251Z,13.69
2016-09-15T04:43:39.248Z,13.58
2016-09-15T04:44:39.250Z,13.58
2016-09-15T04:45:39.255Z,13.57
2016-09-15T04:46:39.270Z,13.54
2016-09-15T04:47:39.256Z,13.63
2016-09-15T04:48:39.244Z,13.66
2016-09-15T04:49:39.183Z,13.54
2016-09-15T04:50:39.280Z,13.55
2016-09-15T04:51:39.525Z,13.69
2016-09-15T04:52:39.207Z,13.69
2016-09-15T04:53:39.208Z,13.73
2016-09-15T04:54:39.221Z,13.63
2016-09-15T04:55:39.235Z,13.65
2016-09-15T04:56:39.236Z,13.58
2016-09-15T04:57:39.245Z,13.57
2016-09-15T04:58:39.256Z,13.69
2016-09-15T04:59:39.255Z,13.69
2016-09-15T05:00:39.161Z,13.63
2016-09-15T05:01:39.185Z,13.62
2016-09-15T05:02:39.189Z,13.51
2016-09-15T05:03:39.181Z,13.57
2016-09-15T05:04:39.190Z,13.66
2016-09-15T05:05:39.199Z,13.55
2016-09-15T05:06:39.207Z,13.57
2016-09-15T05:07:39.221Z,13.53
2016-09-15T05:08:39.225Z,13.54
2016-09-15T05:09:39.229Z,13.54
2016-09-15T05:10:39.217Z,13.62
2016-09-15T05:11:39.096Z,13.62
2016-09-15T05:12:39.156Z,13.6
2016-09-15T05:13:39.149Z,13.57
2016-09-15T05:14:39.164Z,13.58
2016-09-15T05:15:39.494Z,13.57
2016-09-15T05:16:39.184Z,13.53
2016-09-15T05:17:39.191Z,13.58
2016-09-15T05:18:39.048Z,13.54
2016-09-15T05:19:39.181Z,13.51
2016-09-15T05:20:39.046Z,13.62
2016-09-15T05:21:39.036Z,13.63
2016-09-15T05:22:39.022Z,13.65
2016-09-15T05:23:39.029Z,13.55
2016-09-15T05:24:39.154Z,13.62
2016-09-15T05:25:39.141Z,13.7
2016-09-15T05:26:39.153Z,13.7
2016-09-15T05:27:39.018Z,13.65
2016-09-15T05:28:39.000Z,13.58
2016-09-15T05:29:39.000Z,13.7
2016-09-15T05:30:39.037Z,13.62
2016-09-15T05:31:39.001Z,13.68
2016-09-15T05:32:39.027Z,13.6
2016-09-15T05:33:39.028Z,13.72
2016-09-15T05:34:39.038Z,13.65
2016-09-15T05:35:39.016Z,13.69
2016-09-15T05:36:39.013Z,13.81
2016-09-15T05:37:39.012Z,13.78
2016-09-15T05:38:38.990Z,13.86
2016-09-15T05:39:38.994Z,13.83
2016-09-15T05:40:38.993Z,13.84
2016-09-15T05:41:39.298Z,13.86
2016-09-15T05:42:38.979Z,13.94
2016-09-15T05:43:38.857Z,13.9
2016-09-15T05:44:38.847Z,14.01
2016-09-15T05:45:38.846Z,13.93
2016-09-15T05:46:39.398Z,13.93
2016-09-15T05:47:39.036Z,13.94
2016-09-15T05:48:38.833Z,14.02
2016-09-15T05:49:38.833Z,14.08
2016-09-15T05:50:38.820Z,14.11
2016-09-15T05:51:38.820Z,14.12
2016-09-15T05:52:38.844Z,14.16
2016-09-15T05:53:38.825Z,14.12
2016-09-15T05:54:38.818Z,14.09
2016-09-15T05:55:38.811Z,14.09
2016-09-15T05:56:38.814Z,14.09
2016-09-15T05:57:38.810Z,14.19
2016-09-15T05:58:38.809Z,14.21
2016-09-15T05:59:38.805Z,14.16
2016-09-15T06:00:38.684Z,14.21
2016-09-15T06:01:38.669Z,14.26
2016-09-15T06:02:38.991Z,14.3
2016-09-15T06:03:38.655Z,14.3
2016-09-15T06:04:38.650Z,14.31
2016-09-15T06:05:38.649Z,14.33
2016-09-15T06:06:38.648Z,14.3
2016-09-15T06:07:38.644Z,14.34
2016-09-15T06:08:38.634Z,14.39
2016-09-15T06:09:38.632Z,14.42
2016-09-15T06:10:38.631Z,14.42
2016-09-15T06:11:38.618Z,14.45
2016-09-15T06:12:38.615Z,14.49
2016-09-15T06:13:39.031Z,14.51
2016-09-15T06:14:38.602Z,14.45
2016-09-15T06:15:38.594Z,14.46
2016-09-15T06:16:38.590Z,14.49
2016-09-15T06:17:38.589Z,14.59
2016-09-15T06:18:38.600Z,14.48
2016-09-15T06:19:38.588Z,14.56
2016-09-15T06:20:38.576Z,14.56
2016-09-15T06:21:38.577Z,14.66
2016-09-15T06:22:38.583Z,14.64
2016-09-15T06:23:38.563Z,14.66
2016-09-15T06:24:38.557Z,14.69
2016-09-15T06:25:38.550Z,14.7
2016-09-15T06:26:38.547Z,14.8
2016-09-15T06:27:38.554Z,14.75
2016-09-15T06:28:38.542Z,14.82
2016-09-15T06:29:38.541Z,14.83
2016-09-15T06:30:38.542Z,14.9
2016-09-15T06:31:38.522Z,14.9
2016-09-15T06:32:38.528Z,14.89
2016-09-15T06:33:38.534Z,15.01
2016-09-15T06:34:38.507Z,15
2016-09-15T06:35:38.505Z,14.97
2016-09-15T06:36:38.534Z,15.02
2016-09-15T06:37:38.495Z,15.08
2016-09-15T06:38:38.501Z,15.15
2016-09-15T06:39:38.782Z,15.15
2016-09-15T06:40:38.485Z,15.31
2016-09-15T06:41:38.485Z,15.31
2016-09-15T06:42:38.475Z,15.31
2016-09-15T06:43:38.471Z,15.3
2016-09-15T06:44:38.466Z,15.41
2016-09-15T06:45:38.465Z,15.37
2016-09-15T06:46:38.462Z,15.38
2016-09-15T06:47:38.452Z,15.44
2016-09-15T06:48:38.445Z,15.44
2016-09-15T06:49:38.445Z,15.49
2016-09-15T06:50:38.449Z,15.53
2016-09-15T06:51:38.435Z,15.55
2016-09-15T06:52:38.431Z,15.55
2016-09-15T06:53:38.431Z,15.62
2016-09-15T06:54:38.429Z,15.59
2016-09-15T06:55:38.421Z,15.68
2016-09-15T06:56:38.422Z,15.77
2016-09-15T06:57:38.408Z,15.74
2016-09-15T06:58:38.411Z,15.75
2016-09-15T06:59:38.400Z,15.93
2016-09-15T07:00:38.416Z,15.91
2016-09-15T07:01:38.397Z,16.06
2016-09-15T07:02:38.396Z,15.93
2016-09-15T07:03:38.391Z,16.04
2016-09-15T07:04:38.393Z,16.13
2016-09-15T07:05:38.380Z,16.22
2016-09-15T07:06:38.371Z,16.29
2016-09-15T07:07:38.374Z,16.3
2016-09-15T07:08:38.374Z,16.34
2016-09-15T07:09:38.370Z,16.44
2016-09-15T07:10:38.363Z,16.45
2016-09-15T07:11:38.794Z,16.59
2016-09-15T07:12:38.352Z,16.66
2016-09-15T07:13:38.347Z,16.8
2016-09-15T07:14:38.347Z,16.81
2016-09-15T07:15:38.342Z,16.85
2016-09-15T07:16:38.344Z,16.88
2016-09-15T07:17:38.915Z,17.06
2016-09-15T07:18:38.325Z,17
2016-09-15T07:19:38.325Z,17.02
2016-09-15T07:20:38.326Z,17.06
2016-09-15T07:21:38.320Z,17.13
2016-09-15T07:22:38.324Z,17.2
2016-09-15T07:23:38.312Z,17.21
2016-09-15T07:24:38.308Z,17.2
2016-09-15T07:25:38.309Z,17.32
2016-09-15T07:26:38.310Z,17.45
2016-09-15T07:27:38.301Z,17.5
2016-09-15T07:28:38.298Z,17.6
2016-09-15T07:29:38.295Z,17.73
2016-09-15T07:30:38.301Z,17.81
2016-09-15T07:31:38.286Z,17.86
2016-09-15T07:32:38.284Z,18.02
2016-09-15T07:33:38.282Z,18.03
2016-09-15T07:34:38.279Z,18.19
2016-09-15T07:35:38.284Z,18.2
2016-09-15T07:36:38.282Z,18.34
2016-09-15T07:37:38.270Z,18.19
2016-09-15T07:38:38.283Z,18.34
2016-09-15T07:39:38.265Z,18.42
2016-09-15T07:40:38.579Z,18.54
2016-09-15T07:41:38.259Z,18.53
2016-09-15T07:42:38.255Z,18.49
2016-09-15T07:43:38.259Z,18.54
2016-09-15T07:44:38.268Z,18.59
2016-09-15T07:45:38.253Z,18.74
2016-09-15T07:46:38.414Z,18.84
2016-09-15T07:47:38.257Z,18.94
2016-09-15T07:49:38.263Z,19.16
2016-09-15T07:50:38.245Z,19.16
2016-09-15T07:51:38.251Z,19.2
2016-09-15T07:52:38.249Z,19.35
2016-09-15T07:53:38.232Z,19.57
2016-09-15T07:54:38.257Z,19.53
2016-09-15T07:55:38.242Z,19.79
2016-09-15T07:56:38.463Z,19.9
2016-09-15T07:57:38.241Z,19.93
2016-09-15T07:58:38.235Z,20.04
2016-09-15T07:59:38.224Z,20.16
2016-09-15T08:00:38.224Z,20.29
2016-09-15T08:01:38.224Z,20.49
2016-09-15T08:02:38.542Z,20.53
2016-09-15T08:03:38.226Z,20.57
2016-09-15T08:04:38.216Z,20.71
2016-09-15T08:05:38.217Z,20.83
2016-09-15T08:06:38.221Z,20.81
2016-09-15T08:07:38.223Z,20.91
2016-09-15T08:08:38.218Z,21.01
2016-09-15T08:09:38.213Z,21.03
2016-09-15T08:10:38.224Z,21.18
2016-09-15T08:11:38.229Z,21.18
2016-09-15T08:12:38.232Z,21.16
2016-09-15T08:13:38.214Z,21.27
2016-09-15T08:14:38.209Z,21.34
2016-09-15T08:15:38.285Z,21.38
2016-09-15T08:16:38.223Z,21.51
2016-09-15T08:17:38.210Z,21.59
2016-09-15T08:18:38.220Z,21.74
2016-09-15T08:19:38.211Z,21.74
2016-09-15T08:20:38.217Z,21.76
2016-09-15T08:21:38.220Z,21.82
2016-09-15T08:22:38.537Z,21.94
2016-09-15T08:23:38.217Z,21.97
2016-09-15T08:24:38.203Z,22.04
2016-09-15T08:25:38.217Z,22.08
2016-09-15T08:26:38.202Z,22.08
2016-09-15T08:27:38.201Z,22.18
2016-09-15T08:28:38.200Z,22.14
2016-09-15T08:29:38.223Z,22.22
2016-09-15T08:30:38.217Z,22.31
2016-09-15T08:31:38.200Z,22.33
2016-09-15T08:32:38.211Z,22.31
2016-09-15T08:33:38.212Z,22.39
2016-09-15T08:34:38.215Z,22.44
2016-09-15T08:35:38.212Z,22.41
2016-09-15T08:36:38.212Z,22.45
2016-09-15T08:37:38.528Z,22.48
2016-09-15T08:38:38.223Z,22.54
2016-09-15T08:39:38.227Z,22.51
2016-09-15T08:40:38.199Z,22.49
2016-09-15T08:41:38.203Z,22.6
2016-09-15T08:42:38.219Z,22.66
2016-09-15T08:43:38.564Z,22.63
2016-09-15T08:44:38.207Z,22.63
2016-09-15T08:45:38.209Z,22.55
2016-09-15T08:46:38.211Z,22.6
2016-09-15T08:47:38.216Z,22.54
2016-09-15T08:48:38.211Z,22.61
2016-09-15T08:49:38.407Z,22.6
2016-09-15T08:50:38.669Z,22.6
2016-09-15T08:51:38.226Z,22.66
2016-09-15T08:52:38.432Z,22.67
2016-09-15T08:53:38.900Z,22.75
2016-09-15T08:54:39.075Z,22.76
2016-09-15T08:55:39.042Z,22.79
2016-09-15T08:56:38.210Z,22.75
2016-09-15T08:57:38.224Z,22.86
2016-09-15T08:58:38.226Z,22.84
2016-09-15T08:59:38.214Z,22.86
2016-09-15T09:00:38.220Z,23
2016-09-15T09:01:38.226Z,23.01
2016-09-15T09:02:38.226Z,23
2016-09-15T09:03:38.225Z,23.14
2016-09-15T09:04:38.220Z,23.15
2016-09-15T09:05:38.231Z,23.21
2016-09-15T09:06:38.235Z,23.24
2016-09-15T09:07:38.228Z,23.28
2016-09-15T09:08:38.249Z,23.4
2016-09-15T09:09:38.226Z,23.4
2016-09-15T09:10:38.226Z,23.42
2016-09-15T09:11:38.232Z,23.41
2016-09-15T09:12:38.652Z,23.41
2016-09-15T09:13:38.228Z,23.42
2016-09-15T09:14:38.233Z,23.47
2016-09-15T09:15:38.228Z,23.47
2016-09-15T09:16:38.253Z,23.5
2016-09-15T09:17:38.236Z,23.53
2016-09-15T09:18:38.233Z,23.55
2016-09-15T09:19:38.236Z,23.67
2016-09-15T09:20:38.237Z,23.64
2016-09-15T09:21:38.237Z,23.67
2016-09-15T09:22:38.241Z,23.72
2016-09-15T09:23:38.252Z,23.74
2016-09-15T09:24:38.238Z,23.79
2016-09-15T09:25:38.247Z,23.82
2016-09-15T09:26:38.238Z,23.93
2016-09-15T09:27:38.243Z,23.92
2016-09-15T09:28:38.238Z,24
2016-09-15T09:29:38.244Z,24.03
2016-09-15T09:30:38.248Z,24.04
2016-09-15T09:31:38.248Z,24.17
2016-09-15T09:32:38.261Z,24.11
2016-09-15T09:33:38.249Z,24.14
2016-09-15T09:34:38.256Z,24.17
2016-09-15T09:35:38.248Z,24.11
2016-09-15T09:36:38.248Z,24.17
2016-09-15T09:37:38.253Z,24.24
2016-09-15T09:38:38.259Z,24.21
2016-09-15T09:39:38.261Z,24.24
2016-09-15T09:40:38.265Z,24.27
2016-09-15T09:41:38.273Z,24.3
2016-09-15T09:42:38.263Z,24.34
2016-09-15T09:43:38.269Z,24.4
2016-09-15T09:44:38.273Z,24.39
2016-09-15T09:45:38.269Z,24.4
2016-09-15T09:46:38.266Z,24.45
2016-09-15T09:47:38.281Z,24.44
2016-09-15T09:48:38.266Z,24.45
2016-09-15T09:49:38.282Z,24.46
2016-09-15T09:50:38.268Z,24.52
2016-09-15T09:51:38.329Z,24.49
2016-09-15T09:52:38.294Z,24.54
2016-09-15T09:53:38.286Z,24.52
2016-09-15T09:54:38.277Z,24.67
2016-09-15T09:55:38.285Z,24.56
2016-09-15T09:56:38.282Z,24.69
2016-09-15T09:57:38.295Z,24.59
2016-09-15T09:58:38.308Z,24.63
2016-09-15T09:59:38.303Z,24.66
2016-09-15T10:00:38.289Z,24.63
2016-09-15T10:01:38.316Z,24.69
2016-09-15T10:02:38.289Z,24.66
2016-09-15T10:03:38.297Z,24.74
2016-09-15T10:04:38.297Z,24.69
2016-09-15T10:05:38.306Z,24.8
2016-09-15T10:06:38.298Z,24.67
2016-09-15T10:07:38.315Z,24.75
2016-09-15T10:08:38.306Z,24.7
2016-09-15T10:09:38.324Z,24.85
2016-09-15T10:10:38.312Z,24.8
2016-09-15T10:11:38.312Z,24.8
2016-09-15T10:12:38.313Z,24.83
2016-09-15T10:13:38.317Z,24.82
2016-09-15T10:14:38.324Z,24.97
2016-09-15T10:15:38.318Z,24.83
2016-09-15T10:16:38.325Z,24.94
2016-09-15T10:17:38.336Z,25.01
2016-09-15T10:18:38.346Z,24.94
2016-09-15T10:19:38.329Z,25
2016-09-15T10:20:38.341Z,25.05
2016-09-15T10:21:38.326Z,25.02
2016-09-15T10:22:38.333Z,25.02
2016-09-15T10:23:38.341Z,24.96
2016-09-15T10:24:38.335Z,25.09
2016-09-15T10:25:38.345Z,25.11
2016-09-15T10:26:38.736Z,25.12
2016-09-15T10:27:38.343Z,25.11
2016-09-15T10:28:38.371Z,25.17
2016-09-15T10:29:38.362Z,25.19
2016-09-15T10:30:38.347Z,25.3
2016-09-15T10:31:38.359Z,25.27
2016-09-15T10:32:38.359Z,25.32
2016-09-15T10:33:38.355Z,25.24
2016-09-15T10:34:38.366Z,25.27
2016-09-15T10:35:38.358Z,25.27
2016-09-15T10:36:38.367Z,25.23
2016-09-15T10:37:38.372Z,25.27
2016-09-15T10:38:38.378Z,25.23
2016-09-15T10:39:38.377Z,25.32
2016-09-15T10:40:38.371Z,25.29
2016-09-15T10:41:38.371Z,25.24
2016-09-15T10:42:38.376Z,25.26
2016-09-15T10:43:38.791Z,25.23
2016-09-15T10:44:38.390Z,25.27
2016-09-15T10:45:38.390Z,25.33
2016-09-15T10:46:38.384Z,25.27
2016-09-15T10:47:38.385Z,25.34
2016-09-15T10:48:38.395Z,25.24
2016-09-15T10:49:38.387Z,25.29
2016-09-15T10:50:38.395Z,25.26
2016-09-15T10:51:38.408Z,25.29
2016-09-15T10:52:38.401Z,25.41
2016-09-15T10:53:38.417Z,25.37
2016-09-15T10:54:38.402Z,25.37
2016-09-15T10:55:38.409Z,25.45
2016-09-15T10:56:38.418Z,25.37
2016-09-15T10:57:38.418Z,25.49
2016-09-15T10:58:38.424Z,25.42
2016-09-15T10:59:38.559Z,25.52
2016-09-15T11:00:38.547Z,25.57
2016-09-15T11:01:38.426Z,25.56
2016-09-15T11:02:38.425Z,25.44
2016-09-15T11:03:38.546Z,25.56
2016-09-15T11:04:38.549Z,25.47
2016-09-15T11:05:38.545Z,25.51
2016-09-15T11:06:38.555Z,25.45
2016-09-15T11:07:38.548Z,25.52
2016-09-15T11:08:38.558Z,25.48
2016-09-15T11:09:38.559Z,25.48
2016-09-15T11:10:38.553Z,25.54
2016-09-15T11:11:38.564Z,25.44
2016-09-15T11:12:38.558Z,25.57
2016-09-15T11:13:38.564Z,25.51
2016-09-15T11:14:38.561Z,25.57
2016-09-15T11:15:38.547Z,25.42
2016-09-15T11:16:38.695Z,25.42
2016-09-15T11:17:38.869Z,25.44
2016-09-15T11:18:38.564Z,25.34
2016-09-15T11:19:38.584Z,25.38
2016-09-15T11:20:38.558Z,25.38
2016-09-15T11:21:38.556Z,25.34
2016-09-15T11:22:38.883Z,25.32
2016-09-15T11:23:38.691Z,25.37
2016-09-15T11:24:38.694Z,25.33
2016-09-15T11:25:38.698Z,25.37
2016-09-15T11:26:38.984Z,25.42
2016-09-15T11:27:38.709Z,25.37
2016-09-15T11:28:38.705Z,25.41
2016-09-15T11:29:38.692Z,25.32
2016-09-15T11:30:38.701Z,25.38
2016-09-15T11:31:38.715Z,25.33
2016-09-15T11:32:38.718Z,25.41
2016-09-15T11:33:38.711Z,25.45
2016-09-15T11:34:38.719Z,25.37
2016-09-15T11:35:38.720Z,25.32
2016-09-15T11:36:38.721Z,25.38
2016-09-15T11:37:38.728Z,25.32
2016-09-15T11:38:38.726Z,25.49
2016-09-15T11:39:38.690Z,25.39
2016-09-15T11:40:38.678Z,25.34
2016-09-15T11:41:38.683Z,25.24
2016-09-15T11:42:38.889Z,25.29
2016-09-15T11:43:38.683Z,25.39
2016-09-15T11:44:38.696Z,25.2
2016-09-15T11:45:38.691Z,25.34
2016-09-15T11:46:38.706Z,25.23
2016-09-15T11:47:38.691Z,25.22
2016-09-15T11:48:38.701Z,25.27
2016-09-15T11:49:38.700Z,25.27
2016-09-15T11:50:38.701Z,25.3
2016-09-15T11:51:38.703Z,25.26
2016-09-15T11:52:38.841Z,25.24
2016-09-15T11:53:38.708Z,25.17
2016-09-15T11:54:38.808Z,25.19
2016-09-15T11:55:38.836Z,25.19
2016-09-15T11:56:38.838Z,25.15
2016-09-15T11:57:38.829Z,25.15
2016-09-15T11:58:38.839Z,25.12
2016-09-15T11:59:38.842Z,25.11
2016-09-15T12:00:38.851Z,25.17
2016-09-15T12:01:38.864Z,25.05
2016-09-15T12:02:38.744Z,25.09
2016-09-15T12:03:38.734Z,25.08
2016-09-15T12:04:38.745Z,25.14
2016-09-15T12:05:38.739Z,25.08
2016-09-15T12:06:38.798Z,25.09
2016-09-15T12:07:38.803Z,25.11
2016-09-15T12:08:38.810Z,25
2016-09-15T12:09:38.811Z,25.08
2016-09-15T12:10:38.822Z,25.01
2016-09-15T12:11:38.836Z,25.01
2016-09-15T12:12:38.839Z,25.01
2016-09-15T12:13:38.846Z,25.07
2016-09-15T12:14:38.850Z,25.02
2016-09-15T12:15:38.990Z,25.08
2016-09-15T12:16:38.866Z,24.94
2016-09-15T12:17:38.887Z,25.08
2016-09-15T12:18:38.873Z,25
2016-09-15T12:19:38.785Z,25.07
2016-09-15T12:20:38.791Z,25.01
2016-09-15T12:21:38.790Z,24.97
2016-09-15T12:22:38.803Z,25.11
2016-09-15T12:23:38.810Z,25.01
2016-09-15T12:24:38.817Z,25.07
2016-09-15T12:25:38.828Z,25.04
2016-09-15T12:26:38.834Z,25
2016-09-15T12:27:38.838Z,25.05
2016-09-15T12:28:38.845Z,25.08
2016-09-15T12:29:38.859Z,25.09
2016-09-15T12:30:38.870Z,25.01
2016-09-15T12:31:38.884Z,25
2016-09-15T12:32:38.847Z,25.05
2016-09-15T12:33:38.795Z,25.02
2016-09-15T12:34:38.788Z,24.92
2016-09-15T12:35:38.796Z,25.02
2016-09-15T12:36:38.812Z,25.02
2016-09-15T12:37:38.805Z,25.01
2016-09-15T12:38:38.821Z,25.11
2016-09-15T12:39:38.830Z,25.08
2016-09-15T12:40:38.844Z,25.12
2016-09-15T12:41:38.856Z,25.08
2016-09-15T12:42:38.841Z,25.11
2016-09-15T12:43:38.859Z,25.11
2016-09-15T12:44:38.827Z,25.22
2016-09-15T12:45:38.833Z,25.12
2016-09-15T12:46:38.833Z,25.2
2016-09-15T12:47:38.837Z,25.24
2016-09-15T12:48:38.859Z,25.19
2016-09-15T12:49:38.867Z,25.19
2016-09-15T12:50:38.881Z,25.08
2016-09-15T12:51:38.875Z,25.07
2016-09-15T12:52:38.887Z,25.17
2016-09-15T12:53:38.868Z,25.12
2016-09-15T12:54:38.837Z,25.14
2016-09-15T12:55:38.841Z,25.15
2016-09-15T12:56:38.868Z,25.11
2016-09-15T12:57:38.830Z,25.14